Time;durP1;ratioP1;P1;durP2;ratioP2;P2;SDS_P1;SDS_P2;PMS_P1;PMS_P2;Temp;Humidity;BMP_temperature;BMP_pressure;BME280_temperature;BME280_humidity;BME280_pressure;Samples;Min_cycle;Max_cycle;Signal;HPM_P1;HPM_P2
2023/07/05 00:01:41;;;;;;;8.87;8.37;;;21.30;19.60;;;;;;4991494;28;20185;-57
2023/07/05 00:04:08;;;;;;;8.60;8.10;;;21.20;19.70;;;;;;4991701;28;20185;-57
2023/07/05 00:06:33;;;;;;;8.87;8.37;;;21.20;19.70;;;;;;4991425;28;20174;-57
2023/07/05 00:08:59;;;;;;;9.70;9.00;;;21.10;20.00;;;;;;4991318;28;20940;-58
2023/07/05 00:11:24;;;;;;;8.23;7.83;;;21.10;20.00;;;;;;4991453;28;20634;-58
2023/07/05 00:13:50;;;;;;;8.00;7.60;;;21.10;20.10;;;;;;5007821;28;20193;-58
2023/07/05 00:16:16;;;;;;;9.23;8.60;;;21.10;20.30;;;;;;4991288;28;20635;-58
2023/07/05 00:18:42;;;;;;;9.03;8.33;;;21.10;20.30;;;;;;4991251;28;20304;-58
2023/07/05 00:21:09;;;;;;;8.10;7.80;;;21.10;20.20;;;;;;4991358;28;20174;-58
2023/07/05 00:23:36;;;;;;;9.50;8.90;;;21.00;20.30;;;;;;4990990;28;20463;-59
2023/07/05 00:26:04;;;;;;;8.50;8.10;;;21.00;20.40;;;;;;4991426;28;20745;-59
2023/07/05 00:28:32;;;;;;;8.70;8.20;;;21.00;20.50;;;;;;4991039;28;20421;-59
2023/07/05 00:30:58;;;;;;;8.93;8.40;;;20.90;20.80;;;;;;4991286;28;20439;-59
2023/07/05 00:33:24;;;;;;;7.90;7.60;;;20.80;21.10;;;;;;4991163;28;20952;-59
2023/07/05 00:35:52;;;;;;;9.43;8.93;;;20.70;21.40;;;;;;4992481;28;20747;-58
2023/07/05 00:38:19;;;;;;;9.13;8.63;;;20.70;21.80;;;;;;4990833;28;20240;-58
2023/07/05 00:40:46;;;;;;;9.27;8.77;;;20.60;21.90;;;;;;4991087;28;20905;-58
2023/07/05 00:43:13;;;;;;;8.80;8.40;;;20.60;21.90;;;;;;4991044;28;20520;-58
2023/07/05 00:45:56;;;;;;;9.13;8.63;;;20.60;22.70;;;;;;4992349;28;20417;-58
2023/07/05 00:48:49;;;;;;;8.90;8.40;;;20.60;22.10;;;;;;4990876;28;20421;-57
2023/07/05 00:51:21;;;;;;;9.20;8.70;;;20.60;22.10;;;;;;4991071;28;20472;-59
2023/07/05 00:53:47;;;;;;;8.67;8.10;;;20.50;22.00;;;;;;4991007;28;20459;-59
2023/07/05 00:56:20;;;;;;;8.87;8.37;;;20.50;22.00;;;;;;4990890;28;20417;-59
2023/07/05 00:58:46;;;;;;;8.90;8.50;;;20.50;22.00;;;;;;4990704;28;20465;-58
2023/07/05 01:01:12;;;;;;;9.13;8.73;;;20.50;22.00;;;;;;4991005;28;20431;-58
2023/07/05 01:03:39;;;;;;;9.00;8.60;;;20.40;22.20;;;;;;4990832;28;20449;-58
2023/07/05 01:06:06;;;;;;;9.23;8.83;;;20.50;22.40;;;;;;4992157;28;20178;-57
2023/07/05 01:08:32;;;;;;;8.50;8.20;;;20.50;22.40;;;;;;4990570;28;20429;-57
2023/07/05 01:11:23;;;;;;;9.90;9.20;;;20.50;22.30;;;;;;4990928;28;20922;-58
2023/07/05 01:14:30;;;;;;;8.33;7.93;;;20.50;22.30;;;;;;5001622;28;20448;-58
2023/07/05 01:16:58;;;;;;;8.50;8.10;;;20.40;22.30;;;;;;4984461;28;20795;-57
2023/07/05 01:20:04;;;;;;;8.97;8.47;;;20.40;22.40;;;;;;4990675;28;20417;-57
2023/07/05 01:22:55;;;;;;;8.33;7.93;;;20.40;25.00;;;;;;4992283;28;20437;-57
2023/07/05 01:25:30;;;;;;;8.93;8.53;;;20.30;26.00;;;;;;4990723;28;20425;-57
2023/07/05 01:28:30;;;;;;;9.80;9.30;;;20.20;27.30;;;;;;4990333;28;20431;-57
2023/07/05 01:31:01;;;;;;;10.17;9.67;;;20.20;28.00;;;;;;4990742;28;20448;-57
2023/07/05 01:33:43;;;;;;;9.03;8.63;;;20.10;26.90;;;;;;4990704;28;20421;-57
2023/07/05 01:36:11;;;;;;;9.07;8.57;;;20.10;26.40;;;;;;4993403;28;20421;-57
2023/07/05 01:38:36;;;;;;;9.20;8.90;;;20.10;28.50;;;;;;4993899;28;20496;-57
2023/07/05 01:41:05;;;;;;;9.33;9.03;;;20.10;28.90;;;;;;4994209;28;20459;-57
2023/07/05 01:43:33;;;;;;;8.50;8.10;;;20.10;28.10;;;;;;4994090;28;20170;-58
2023/07/05 01:46:13;;;;;;;9.30;8.80;;;20.10;27.30;;;;;;4994187;28;20440;-58
2023/07/05 01:48:42;;;;;;;9.30;8.90;;;20.00;27.20;;;;;;4993587;28;20416;-58
2023/07/05 01:51:25;;;;;;;9.73;9.23;;;20.00;27.30;;;;;;4994096;28;20425;-57
2023/07/05 01:54:12;;;;;;;9.00;8.60;;;20.00;27.30;;;;;;4993974;28;20429;-58
2023/07/05 01:56:56;;;;;;;10.07;9.57;;;20.00;26.00;;;;;;4993962;28;20789;-58
2023/07/05 01:59:26;;;;;;;8.63;8.23;;;19.90;26.40;;;;;;4993687;28;20740;-58
2023/07/05 02:01:54;;;;;;;8.43;8.13;;;19.80;26.60;;;;;;4993791;28;20428;-58
2023/07/05 02:04:22;;;;;;;9.30;8.70;;;19.80;27.40;;;;;;4993823;28;20405;-58
2023/07/05 02:06:49;;;;;;;8.60;8.10;;;19.80;26.50;;;;;;4993608;28;20882;-57
2023/07/05 02:09:14;;;;;;;8.60;8.30;;;19.70;26.40;;;;;;4993600;28;20846;-58
2023/07/05 02:11:40;;;;;;;9.93;9.53;;;19.70;26.80;;;;;;4993520;28;20618;-58
2023/07/05 02:14:06;;;;;;;9.10;8.80;;;19.70;27.00;;;;;;4993562;28;20186;-58
2023/07/05 02:17:12;;;;;;;9.30;8.90;;;19.80;26.30;;;;;;4993477;28;20205;-59
2023/07/05 02:19:38;;;;;;;9.63;9.23;;;19.90;26.10;;;;;;4993360;28;20181;-59
2023/07/05 02:22:04;;;;;;;10.07;9.57;;;20.00;26.10;;;;;;4993272;28;20483;-59
2023/07/05 02:24:29;;;;;;;9.93;9.43;;;20.00;25.80;;;;;;4993414;28;20217;-59
2023/07/05 02:26:55;;;;;;;9.37;8.97;;;20.00;25.80;;;;;;4993262;28;20193;-59
2023/07/05 02:29:22;;;;;;;9.00;8.57;;;20.10;25.60;;;;;;4993146;28;20634;-59
2023/07/05 02:31:48;;;;;;;8.63;8.23;;;20.20;25.40;;;;;;4993198;28;20182;-59
2023/07/05 02:34:14;;;;;;;9.00;8.60;;;20.30;25.40;;;;;;4993323;28;20464;-59
2023/07/05 02:36:40;;;;;;;9.90;9.30;;;20.50;24.90;;;;;;4993050;28;20452;-59
2023/07/05 02:39:05;;;;;;;9.07;8.60;;;20.40;28.40;;;;;;4992864;28;20296;-59
2023/07/05 02:41:31;;;;;;;8.90;8.50;;;20.30;29.50;;;;;;4992994;28;20604;-59
2023/07/05 02:43:57;;;;;;;8.60;8.30;;;20.30;29.10;;;;;;4993232;28;20178;-59
2023/07/05 02:46:25;;;;;;;8.70;8.40;;;20.20;32.20;;;;;;4992958;28;20197;-58
2023/07/05 02:48:52;;;;;;;8.77;8.47;;;20.00;32.50;;;;;;4992603;28;20607;-58
2023/07/05 02:51:18;;;;;;;12.10;11.50;;;20.00;31.60;;;;;;4994215;28;20457;-58
2023/07/05 02:53:43;;;;;;;10.40;9.90;;;19.80;32.00;;;;;;4992595;28;20460;-58
2023/07/05 02:56:09;;;;;;;9.73;9.20;;;19.80;33.70;;;;;;4992913;28;20194;-58
2023/07/05 02:58:35;;;;;;;9.27;8.87;;;19.70;34.90;;;;;;5008606;28;20201;-58
2023/07/05 03:01:00;;;;;;;9.90;9.23;;;19.70;35.90;;;;;;4992883;28;20182;-58
2023/07/05 03:03:26;;;;;;;9.20;8.80;;;19.60;33.70;;;;;;4992636;28;20562;-58
2023/07/05 03:05:57;;;;;;;8.57;8.27;;;19.50;35.60;;;;;;4992552;28;20170;-58
2023/07/05 03:08:25;;;;;;;9.83;9.47;;;19.50;34.80;;;;;;4992218;28;20184;-58
2023/07/05 03:10:52;;;;;;;9.07;8.67;;;19.50;34.00;;;;;;4992537;28;20421;-58
2023/07/05 03:13:18;;;;;;;9.60;9.20;;;19.40;34.60;;;;;;4992582;28;20470;-58
2023/07/05 03:15:44;;;;;;;9.27;8.77;;;19.40;35.80;;;;;;4992430;28;20435;-58
2023/07/05 03:18:10;;;;;;;9.93;9.53;;;19.40;34.90;;;;;;4992047;28;20623;-58
2023/07/05 03:20:38;;;;;;;10.17;9.77;;;19.40;37.90;;;;;;4992410;28;20185;-58
2023/07/05 03:23:04;;;;;;;9.63;9.03;;;19.40;35.10;;;;;;4993493;28;20685;-57
2023/07/05 03:25:29;;;;;;;9.97;9.57;;;19.40;36.10;;;;;;4992199;28;20441;-57
2023/07/05 03:27:55;;;;;;;10.40;9.90;;;19.50;36.20;;;;;;4991946;28;20300;-59
2023/07/05 03:30:22;;;;;;;10.07;9.67;;;19.50;35.40;;;;;;5008572;28;20174;-58
2023/07/05 03:32:49;;;;;;;10.00;9.60;;;19.40;35.30;;;;;;4991990;28;20237;-59
2023/07/05 03:35:15;;;;;;;9.90;9.50;;;19.50;34.70;;;;;;4992283;28;20514;-57
2023/07/05 03:37:41;;;;;;;9.10;8.80;;;19.50;35.00;;;;;;4991760;28;20989;-57
2023/07/05 03:40:08;;;;;;;10.30;9.70;;;19.60;34.00;;;;;;4991880;28;20409;-57
2023/07/05 03:42:35;;;;;;;10.50;10.00;;;19.60;33.50;;;;;;4991737;28;20178;-57
2023/07/05 03:45:00;;;;;;;10.07;9.67;;;19.60;34.00;;;;;;4991937;28;20921;-57
2023/07/05 03:47:30;;;;;;;9.43;9.03;;;19.60;32.80;;;;;;4991713;28;20424;-57
2023/07/05 03:49:55;;;;;;;9.40;9.00;;;19.50;32.70;;;;;;4991880;28;20213;-62
2023/07/05 03:52:22;;;;;;;8.50;8.20;;;19.50;31.60;;;;;;4992010;28;20421;-59
2023/07/05 03:54:48;;;;;;;9.30;8.90;;;19.40;31.80;;;;;;4992169;28;20616;-59
2023/07/05 03:57:14;;;;;;;8.37;8.07;;;19.40;32.20;;;;;;4991708;28;20417;-59
2023/07/05 03:59:39;;;;;;;9.10;8.37;;;19.40;33.70;;;;;;4991607;28;20277;-59
2023/07/05 04:02:05;;;;;;;9.87;9.47;;;19.50;32.30;;;;;;5008461;28;20178;-59
2023/07/05 04:04:32;;;;;;;9.63;9.13;;;19.50;33.10;;;;;;4991858;28;20200;-59
2023/07/05 04:06:57;;;;;;;9.73;9.03;;;19.40;32.30;;;;;;4991912;28;20452;-59
2023/07/05 04:09:25;;;;;;;9.50;9.10;;;19.30;32.80;;;;;;4991715;28;20421;-59
2023/07/05 04:11:51;;;;;;;8.80;8.50;;;19.30;33.40;;;;;;4991708;28;20209;-59
2023/07/05 04:14:17;;;;;;;10.20;9.80;;;19.20;33.50;;;;;;4991698;28;20449;-58
2023/07/05 04:16:42;;;;;;;9.87;9.47;;;19.20;34.40;;;;;;4993021;28;20409;-59
2023/07/05 04:19:09;;;;;;;9.60;9.20;;;19.20;34.30;;;;;;4991460;28;20206;-59
2023/07/05 04:21:34;;;;;;;9.60;9.20;;;19.20;34.80;;;;;;4991264;28;20178;-59
2023/07/05 04:24:00;;;;;;;11.30;10.80;;;19.20;35.40;;;;;;4991324;28;20886;-59
2023/07/05 04:26:30;;;;;;;9.97;9.43;;;19.20;35.40;;;;;;4992919;28;20181;-60
2023/07/05 04:28:56;;;;;;;9.20;8.80;;;19.20;35.20;;;;;;4991652;28;20185;-60
2023/07/05 04:31:27;;;;;;;8.90;8.57;;;19.10;34.90;;;;;;5008064;28;20512;-60
2023/07/05 04:33:53;;;;;;;9.43;8.80;;;19.10;35.40;;;;;;4991222;28;20806;-60
2023/07/05 04:36:19;;;;;;;8.30;7.90;;;19.00;36.40;;;;;;4991408;28;20424;-60
2023/07/05 04:38:44;;;;;;;8.67;8.27;;;19.00;37.10;;;;;;4990848;28;20461;-61
2023/07/05 04:41:10;;;;;;;9.40;9.00;;;19.00;35.80;;;;;;4991289;28;20182;-62
2023/07/05 04:43:36;;;;;;;9.27;8.77;;;19.00;36.10;;;;;;4990862;28;20178;-60
2023/07/05 04:46:01;;;;;;;9.17;8.77;;;19.00;36.00;;;;;;4991104;28;20181;-60
2023/07/05 04:48:30;;;;;;;9.90;9.40;;;19.00;36.30;;;;;;4990897;28;20182;-56
2023/07/05 04:50:57;;;;;;;8.40;8.10;;;18.90;36.60;;;;;;4991143;28;20188;-58
2023/07/05 04:53:27;;;;;;;9.13;8.63;;;18.90;37.30;;;;;;4991329;28;20779;-58
2023/07/05 04:55:55;;;;;;;8.50;8.20;;;18.90;37.10;;;;;;4990794;28;20512;-59
2023/07/05 04:58:22;;;;;;;8.97;8.57;;;18.90;37.00;;;;;;4990711;28;20524;-61
2023/07/05 05:00:49;;;;;;;8.20;7.90;;;18.90;37.20;;;;;;4990883;28;20409;-59
2023/07/05 05:03:23;;;;;;;8.43;8.13;;;18.80;37.40;;;;;;4990994;28;20424;-59
2023/07/05 05:05:52;;;;;;;8.30;7.93;;;18.80;37.30;;;;;;4990669;28;20475;-59
2023/07/05 05:08:19;;;;;;;9.67;9.27;;;18.90;37.60;;;;;;4990664;28;20524;-59
2023/07/05 05:10:53;;;;;;;9.10;8.60;;;18.90;37.60;;;;;;4993008;28;20427;-59
2023/07/05 05:13:19;;;;;;;8.47;8.07;;;18.90;37.40;;;;;;4994734;28;20425;-59
2023/07/05 05:15:45;;;;;;;8.90;8.50;;;18.90;37.70;;;;;;4994240;28;20462;-59
2023/07/05 05:18:11;;;;;;;8.33;7.93;;;18.90;37.60;;;;;;4993802;28;20956;-59
2023/07/05 05:20:40;;;;;;;9.27;8.73;;;19.00;37.60;;;;;;4994355;28;20572;-59
2023/07/05 05:23:07;;;;;;;9.00;8.60;;;19.10;37.20;;;;;;4994470;28;20421;-66
2023/07/05 05:25:33;;;;;;;9.70;9.00;;;19.10;37.10;;;;;;4992832;28;20428;-60
2023/07/05 05:27:59;;;;;;;9.17;8.73;;;19.20;36.90;;;;;;4993897;28;20954;-60
2023/07/05 05:30:24;;;;;;;9.13;8.73;;;19.30;36.50;;;;;;4994684;28;20462;-59
2023/07/05 05:32:50;;;;;;;8.73;8.43;;;19.30;36.20;;;;;;4994177;28;20182;-59
2023/07/05 05:35:16;;;;;;;8.47;8.07;;;19.40;36.90;;;;;;4994081;28;20182;-54
2023/07/05 05:37:42;;;;;;;9.37;8.90;;;19.50;35.20;;;;;;4991709;28;20206;-53
2023/07/05 05:40:09;;;;;;;8.50;8.20;;;19.60;35.00;;;;;;4993881;28;20440;-53
2023/07/05 05:42:35;;;;;;;8.57;8.17;;;19.60;35.10;;;;;;4993723;28;20507;-53
2023/07/05 05:45:01;;;;;;;9.17;8.87;;;19.60;34.90;;;;;;4993931;28;20503;-55
2023/07/05 05:47:27;;;;;;;9.93;9.53;;;19.60;34.60;;;;;;4994978;28;20453;-54
2023/07/05 05:49:53;;;;;;;9.30;8.80;;;19.70;34.60;;;;;;4993416;28;20437;-55
2023/07/05 05:52:18;;;;;;;8.90;8.43;;;19.70;34.10;;;;;;4993518;28;20179;-53
2023/07/05 05:54:44;;;;;;;8.60;8.20;;;19.70;34.40;;;;;;4993675;28;20269;-54
2023/07/05 05:57:10;;;;;;;8.97;8.47;;;19.80;33.80;;;;;;4993474;28;20680;-57
2023/07/05 05:59:35;;;;;;;9.57;9.07;;;19.90;33.90;;;;;;4993142;28;20648;-55
2023/07/05 06:02:01;;;;;;;9.27;8.87;;;19.90;33.20;;;;;;4993504;28;20666;-55
2023/07/05 06:04:27;;;;;;;8.70;8.27;;;20.00;32.80;;;;;;4997520;28;20634;-57
2023/07/05 06:06:52;;;;;;;9.37;8.87;;;20.00;32.50;;;;;;5012918;28;20588;-57
2023/07/05 06:09:18;;;;;;;8.20;7.80;;;20.10;32.60;;;;;;5012781;28;20474;-57
2023/07/05 06:11:44;;;;;;;9.53;8.93;;;20.20;32.10;;;;;;5012892;28;20181;-57
2023/07/05 06:14:10;;;;;;;9.20;8.80;;;20.30;31.80;;;;;;5012998;28;20189;-57
2023/07/05 06:16:35;;;;;;;21.57;9.03;;;20.30;31.30;;;;;;5029554;28;20227;-58
2023/07/05 06:19:01;;;;;;;8.70;8.40;;;20.30;31.50;;;;;;5001413;28;20457;-58
2023/07/05 06:21:27;;;;;;;8.53;8.23;;;20.40;31.30;;;;;;4992948;28;20198;-57
2023/07/05 06:23:52;;;;;;;9.30;8.90;;;20.50;31.30;;;;;;4992957;28;20178;-57
2023/07/05 06:26:19;;;;;;;9.70;9.10;;;20.50;31.00;;;;;;5009446;28;20205;-57
2023/07/05 06:28:45;;;;;;;9.30;8.80;;;20.60;30.40;;;;;;4992582;28;20547;-62
2023/07/05 06:31:11;;;;;;;9.30;8.70;;;20.60;30.40;;;;;;5009364;28;20420;-57
2023/07/05 06:33:37;;;;;;;8.13;7.83;;;20.70;30.50;;;;;;4989407;28;20422;-57
2023/07/05 06:36:05;;;;;;;8.80;8.40;;;20.70;30.50;;;;;;4973848;28;20178;-57
2023/07/05 06:38:31;;;;;;;9.40;8.90;;;20.80;30.20;;;;;;4973101;28;20462;-57
2023/07/05 06:40:57;;;;;;;9.10;8.50;;;20.80;33.40;;;;;;4977635;28;20421;-57
2023/07/05 06:43:23;;;;;;;8.80;8.20;;;20.80;35.60;;;;;;4992864;28;20170;-55
2023/07/05 06:45:50;;;;;;;9.60;8.80;;;20.70;37.10;;;;;;4992762;28;20475;-56
2023/07/05 06:48:16;;;;;;;8.73;8.33;;;20.60;37.90;;;;;;4992343;28;20468;-54
2023/07/05 06:50:41;;;;;;;9.27;8.83;;;20.50;39.80;;;;;;4992579;28;20441;-56
2023/07/05 06:53:07;;;;;;;8.30;7.90;;;20.40;39.30;;;;;;4992652;28;20409;-55
2023/07/05 06:55:33;;;;;;;8.07;7.67;;;20.40;39.20;;;;;;4992716;28;20209;-57
2023/07/05 06:57:58;;;;;;;9.00;8.40;;;20.50;39.20;;;;;;4993256;28;20681;-56
2023/07/05 07:00:24;;;;;;;8.50;8.20;;;20.40;39.60;;;;;;5006885;28;20229;-56
2023/07/05 07:02:50;;;;;;;8.20;7.90;;;20.40;39.90;;;;;;4992243;28;20186;-56
2023/07/05 07:05:16;;;;;;;8.60;8.20;;;20.30;40.50;;;;;;4989201;28;20236;-56
2023/07/05 07:07:41;;;;;;;8.77;8.17;;;20.20;41.20;;;;;;4972744;28;20210;-55
2023/07/05 07:10:07;;;;;;;7.80;7.43;;;20.00;45.10;;;;;;4972945;28;20446;-56
2023/07/05 07:12:34;;;;;;;8.03;7.53;;;20.00;45.00;;;;;;4974020;28;20523;-57
2023/07/05 07:14:59;;;;;;;7.90;7.60;;;20.00;44.60;;;;;;4972897;28;20512;-57
2023/07/05 07:17:25;;;;;;;9.27;8.83;;;20.10;44.70;;;;;;4979945;28;20893;-56
2023/07/05 07:19:51;;;;;;;9.37;8.70;;;20.10;44.70;;;;;;4991874;28;20549;-61
2023/07/05 07:22:16;;;;;;;8.80;8.30;;;20.00;45.60;;;;;;4990455;28;20178;-61
2023/07/05 07:24:42;;;;;;;8.57;8.17;;;19.80;46.80;;;;;;4984722;28;20183;-61
2023/07/05 07:27:08;;;;;;;9.03;8.63;;;19.80;48.00;;;;;;4968697;28;20185;-61
2023/07/05 07:29:35;;;;;;;8.30;8.00;;;19.70;50.20;;;;;;4972486;28;20190;-61
2023/07/05 07:32:01;;;;;;;8.63;8.27;;;19.70;50.10;;;;;;4972433;28;20973;-62
2023/07/05 07:34:28;;;;;;;7.93;7.57;;;19.60;48.90;;;;;;4979302;28;20430;-61
2023/07/05 07:36:53;;;;;;;8.10;7.70;;;19.60;50.10;;;;;;4983549;28;20520;-61
2023/07/05 07:39:19;;;;;;;8.60;8.20;;;19.60;50.00;;;;;;4991893;28;20646;-61
2023/07/05 07:41:45;;;;;;;8.60;8.23;;;19.60;47.80;;;;;;4991966;28;20702;-61
2023/07/05 07:44:11;;;;;;;8.70;8.30;;;19.60;47.70;;;;;;4991811;28;20189;-61
2023/07/05 07:46:38;;;;;;;8.70;8.30;;;19.70;46.00;;;;;;4991608;28;20554;-61
2023/07/05 07:49:06;;;;;;;8.20;7.90;;;19.90;43.80;;;;;;4991272;28;20452;-61
2023/07/05 07:51:35;;;;;;;8.80;8.40;;;20.00;42.90;;;;;;4991499;28;20424;-60
2023/07/05 07:54:02;;;;;;;8.33;8.00;;;20.00;42.60;;;;;;4991659;28;20429;-60
2023/07/05 07:56:28;;;;;;;9.60;8.90;;;20.00;41.70;;;;;;4991850;28;20552;-61
2023/07/05 07:58:55;;;;;;;7.93;7.53;;;20.00;40.80;;;;;;4990606;28;20547;-60
2023/07/05 08:01:23;;;;;;;8.27;7.97;;;20.00;39.80;;;;;;4990836;28;20180;-60
2023/07/05 08:03:49;;;;;;;8.00;7.60;;;20.00;40.30;;;;;;4990073;28;20872;-61
2023/07/05 08:06:16;;;;;;;8.27;7.97;;;20.00;40.30;;;;;;4991392;28;20445;-60
2023/07/05 08:08:42;;;;;;;8.37;7.77;;;19.90;39.00;;;;;;4990779;28;20185;-60
2023/07/05 08:11:08;;;;;;;7.60;7.10;;;19.80;39.10;;;;;;4988067;28;20525;-61
2023/07/05 08:13:35;;;;;;;7.63;7.33;;;19.70;39.80;;;;;;4988016;28;20425;-60
2023/07/05 08:16:02;;;;;;;7.90;7.50;;;19.70;40.10;;;;;;4991414;28;20828;-61
2023/07/05 08:18:28;;;;;;;9.13;8.57;;;19.60;39.90;;;;;;4990969;28;20456;-61
2023/07/05 08:20:55;;;;;;;8.40;8.00;;;19.60;39.90;;;;;;4987759;28;20834;-60
2023/07/05 08:23:21;;;;;;;8.73;8.43;;;19.60;39.90;;;;;;4971584;28;20501;-61
2023/07/05 08:25:54;;;;;;;8.20;7.90;;;19.50;40.10;;;;;;4971623;28;20501;-61
2023/07/05 08:28:22;;;;;;;9.00;8.50;;;19.50;40.80;;;;;;4984398;28;20196;-60
2023/07/05 08:30:56;;;;;;;8.17;7.87;;;19.40;40.80;;;;;;4990781;28;20439;-61
2023/07/05 08:33:23;;;;;;;8.43;8.13;;;19.40;39.60;;;;;;5007229;28;20442;-61
2023/07/05 08:35:54;;;;;;;9.10;8.60;;;19.40;39.70;;;;;;4992266;28;20810;-61
2023/07/05 08:38:21;;;;;;;8.53;8.23;;;19.40;39.80;;;;;;4990731;28;20552;-62
2023/07/05 08:40:52;;;;;;;9.83;8.70;;;19.40;39.80;;;;;;4990732;28;20913;-61
2023/07/05 08:43:30;;;;;;;9.13;8.73;;;19.30;40.20;;;;;;4995749;28;20421;-61
2023/07/05 08:46:03;;;;;;;8.43;8.13;;;19.40;41.00;;;;;;4994700;28;20424;-61
2023/07/05 08:48:32;;;;;;;8.87;8.47;;;19.40;40.60;;;;;;4994482;28;20424;-60
2023/07/05 08:50:58;;;;;;;8.80;8.40;;;19.30;39.70;;;;;;4994852;28;20910;-61
2023/07/05 08:53:25;;;;;;;8.90;8.50;;;19.30;39.70;;;;;;4994498;28;20906;-61
2023/07/05 08:56:09;;;;;;;9.40;9.00;;;19.10;39.30;;;;;;4994585;28;20906;-61
2023/07/05 08:58:56;;;;;;;9.30;9.00;;;19.10;39.90;;;;;;4994368;28;20457;-61
2023/07/05 09:01:32;;;;;;;8.63;8.33;;;19.20;39.60;;;;;;4994691;28;20425;-61
2023/07/05 09:03:58;;;;;;;10.20;9.70;;;19.40;38.70;;;;;;4994298;28;20427;-60
2023/07/05 09:06:26;;;;;;;9.60;9.03;;;19.40;38.40;;;;;;4994515;28;20413;-59
2023/07/05 09:09:07;;;;;;;9.40;8.90;;;19.60;38.90;;;;;;4994212;28;20419;-59
2023/07/05 09:12:07;;;;;;;9.07;8.67;;;19.60;38.10;;;;;;4994754;28;20448;-60
2023/07/05 09:14:42;;;;;;;9.70;9.30;;;19.70;38.20;;;;;;4986153;28;20583;-60
2023/07/05 09:17:28;;;;;;;9.00;8.60;;;19.60;38.00;;;;;;4991057;28;20424;-60
2023/07/05 09:20:02;;;;;;;9.30;8.80;;;19.70;37.00;;;;;;4974510;28;20426;-60
2023/07/05 09:22:33;;;;;;;9.80;9.20;;;19.70;35.50;;;;;;4976034;28;20925;-59
2023/07/05 09:24:59;;;;;;;9.43;8.93;;;19.70;34.40;;;;;;4974893;28;20438;-59
2023/07/05 09:27:32;;;;;;;8.63;8.30;;;19.80;33.70;;;;;;4975270;28;20425;-60
2023/07/05 09:30:13;;;;;;;9.97;9.47;;;19.90;34.00;;;;;;4974932;28;20899;-60
2023/07/05 09:32:42;;;;;;;8.77;8.37;;;19.90;33.20;;;;;;4975207;28;20413;-62
2023/07/05 09:35:25;;;;;;;10.00;9.23;;;20.00;32.50;;;;;;4978649;28;20473;-60
2023/07/05 09:38:17;;;;;;;8.87;8.37;;;20.00;30.00;;;;;;4974830;28;20572;-60
2023/07/05 09:40:48;;;;;;;8.83;8.43;;;20.10;29.20;;;;;;4973976;28;20453;-61
2023/07/05 09:43:34;;;;;;;7.70;7.30;;;20.30;27.50;;;;;;4974136;28;20457;-60
2023/07/05 09:46:03;;;;;;;8.53;8.13;;;20.50;27.00;;;;;;4974665;28;20413;-59
2023/07/05 09:48:32;;;;;;;8.90;8.50;;;20.70;25.70;;;;;;4974317;28;20469;-59
2023/07/05 09:51:03;;;;;;;9.37;8.97;;;20.80;25.10;;;;;;4974337;28;20527;-60
2023/07/05 09:53:41;;;;;;;9.10;8.70;;;21.00;24.30;;;;;;4989578;28;20802;-60
2023/07/05 09:56:11;;;;;;;9.00;8.60;;;21.30;23.60;;;;;;4973706;28;20421;-56
2023/07/05 09:58:44;;;;;;;9.43;9.03;;;21.70;23.20;;;;;;4973816;28;21021;-56
2023/07/05 10:01:21;;;;;;;9.10;8.63;;;21.90;23.00;;;;;;4974321;28;20418;-57
2023/07/05 10:03:54;;;;;;;9.13;8.73;;;22.10;21.30;;;;;;4974407;28;20851;-56
2023/07/05 10:06:24;;;;;;;8.60;8.20;;;22.30;21.20;;;;;;4974240;28;20418;-57
2023/07/05 10:08:52;;;;;;;8.60;8.10;;;22.40;19.20;;;;;;4973809;28;20430;-57
2023/07/05 10:11:33;;;;;;;11.03;10.43;;;22.30;18.80;;;;;;4980926;28;20491;-56
2023/07/05 10:14:10;;;;;;;15.10;14.03;;;22.30;18.40;;;;;;4993332;28;20452;-57
2023/07/05 10:16:52;;;;;;;9.33;8.87;;;22.30;18.80;;;;;;4994587;28;20409;-57
2023/07/05 10:19:39;;;;;;;8.67;8.27;;;22.20;18.90;;;;;;4993065;28;20465;-56
2023/07/05 10:22:15;;;;;;;8.30;7.90;;;22.20;18.40;;;;;;4993296;28;20413;-56
2023/07/05 10:25:13;;;;;;;9.27;8.87;;;22.10;17.50;;;;;;5009561;28;20576;-56
2023/07/05 10:27:43;;;;;;;9.43;8.70;;;22.40;17.10;;;;;;4990322;28;20443;-54
2023/07/05 10:30:13;;;;;;;8.90;8.50;;;22.50;14.80;;;;;;4989629;28;20437;-54
2023/07/05 10:32:40;;;;;;;8.93;8.53;;;22.70;14.80;;;;;;4973673;28;20819;-56
2023/07/05 10:35:28;;;;;;;9.67;9.17;;;22.90;14.20;;;;;;4973776;28;20441;-56
2023/07/05 10:37:54;;;;;;;8.83;8.43;;;23.20;13.40;;;;;;4973372;28;20469;-57
2023/07/05 10:40:22;;;;;;;9.37;8.87;;;23.10;11.70;;;;;;4973649;28;20865;-56
2023/07/05 10:42:52;;;;;;;8.70;8.30;;;23.20;11.00;;;;;;4973359;28;20418;-55
2023/07/05 10:45:21;;;;;;;8.33;7.93;;;23.40;8.40;;;;;;4973533;28;20433;-56
2023/07/05 10:47:52;;;;;;;7.13;6.83;;;23.40;7.00;;;;;;4972920;28;20451;-56
2023/07/05 10:50:32;;;;;;;7.30;6.90;;;23.40;7.10;;;;;;4973368;28;20492;-55
2023/07/05 10:53:03;;;;;;;7.70;7.30;;;23.50;8.00;;;;;;4973458;28;20430;-56
2023/07/05 10:56:02;;;;;;;7.70;7.20;;;23.30;8.40;;;;;;4974930;28;20414;-56
2023/07/05 10:58:46;;;;;;;7.83;7.33;;;23.40;9.30;;;;;;4971945;28;20528;-56
2023/07/05 11:01:18;;;;;;;8.63;8.20;;;23.60;8.60;;;;;;4973665;28;20425;-56
2023/07/05 11:03:51;;;;;;;7.43;7.13;;;23.50;8.70;;;;;;4973232;28;20544;-56
2023/07/05 11:06:18;;;;;;;8.13;7.60;;;23.70;8.10;;;;;;4973161;28;20493;-57
2023/07/05 11:08:47;;;;;;;7.80;7.30;;;23.70;8.30;;;;;;4971893;28;20448;-56
2023/07/05 11:11:20;;;;;;;13.43;8.60;;;23.80;9.50;;;;;;4972955;28;20465;-56
2023/07/05 11:13:47;;;;;;;8.13;7.73;;;23.80;9.40;;;;;;4972944;28;20426;-56
2023/07/05 11:16:23;;;;;;;8.20;7.60;;;23.80;9.70;;;;;;4972897;28;20425;-56
2023/07/05 11:18:51;;;;;;;8.27;7.67;;;23.70;9.60;;;;;;4985626;28;20516;-56
2023/07/05 11:21:34;;;;;;;7.50;7.20;;;23.50;9.70;;;;;;4972990;28;20460;-56
2023/07/05 11:24:00;;;;;;;7.23;6.93;;;23.40;10.10;;;;;;4972903;28;20418;-56
2023/07/05 11:26:30;;;;;;;8.60;8.00;;;23.30;9.50;;;;;;4972814;28;20945;-57
2023/07/05 11:28:56;;;;;;;7.33;6.93;;;23.20;9.40;;;;;;4972292;28;20785;-56
2023/07/05 11:31:28;;;;;;;7.43;7.03;;;23.10;9.30;;;;;;4972751;28;20426;-56
2023/07/05 11:34:21;;;;;;;7.33;6.70;;;23.00;9.20;;;;;;4972500;28;20603;-58
2023/07/05 11:36:47;;;;;;;7.60;7.20;;;23.00;9.70;;;;;;4972567;28;20477;-57
2023/07/05 11:39:45;;;;;;;7.10;6.80;;;22.90;9.70;;;;;;4972182;28;20950;-57
2023/07/05 11:42:17;;;;;;;7.17;6.80;;;22.90;9.40;;;;;;4972499;28;20214;-57
2023/07/05 11:45:04;;;;;;;8.17;7.87;;;22.90;9.40;;;;;;4972157;28;20414;-57
2023/07/05 11:47:33;;;;;;;9.37;8.70;;;23.00;9.70;;;;;;4972232;28;20398;-57
2023/07/05 11:50:07;;;;;;;7.97;7.57;;;23.00;8.20;;;;;;4971720;28;20496;-57
2023/07/05 11:52:42;;;;;;;7.00;6.40;;;22.90;9.00;;;;;;4972139;28;20465;-61
2023/07/05 11:55:24;;;;;;;7.83;7.27;;;22.90;7.30;;;;;;4972030;28;20505;-61
2023/07/05 11:58:18;;;;;;;7.80;7.40;;;22.80;8.20;;;;;;4972291;28;20466;-61
2023/07/05 12:01:05;;;;;;;7.20;6.90;;;22.90;9.00;;;;;;4988298;28;20418;-60
2023/07/05 12:03:47;;;;;;;7.67;7.37;;;22.90;8.60;;;;;;4988241;28;20501;-61
2023/07/05 12:06:20;;;;;;;8.03;7.53;;;22.80;8.20;;;;;;4988389;28;20454;-61
2023/07/05 12:08:49;;;;;;;7.30;7.00;;;22.90;8.70;;;;;;4987880;28;20422;-61
2023/07/05 12:11:30;;;;;;;7.40;7.03;;;22.90;8.10;;;;;;4988194;28;21013;-61
2023/07/05 12:14:04;;;;;;;7.50;7.10;;;22.80;6.50;;;;;;4988214;28;20413;-61
2023/07/05 12:16:30;;;;;;;6.97;6.67;;;22.80;6.60;;;;;;4988242;28;20422;-62
2023/07/05 12:18:56;;;;;;;8.13;7.83;;;22.70;8.00;;;;;;4987428;28;20484;-61
2023/07/05 12:21:22;;;;;;;8.13;7.73;;;22.70;8.20;;;;;;4988093;28;20414;-61
2023/07/05 12:23:52;;;;;;;7.50;7.20;;;22.80;6.10;;;;;;4988095;28;20414;-61
2023/07/05 12:26:27;;;;;;;7.83;7.43;;;22.80;6.10;;;;;;4988007;28;20175;-61
2023/07/05 12:28:53;;;;;;;7.57;7.00;;;22.70;6.00;;;;;;4987679;28;20418;-60
2023/07/05 12:31:22;;;;;;;7.50;7.20;;;22.70;6.80;;;;;;4987895;28;20492;-61
2023/07/05 12:33:53;;;;;;;8.13;7.43;;;22.60;7.10;;;;;;4987768;28;20414;-61
2023/07/05 12:36:20;;;;;;;8.53;8.13;;;22.70;6.00;;;;;;4987877;28;20426;-61
2023/07/05 12:38:48;;;;;;;7.90;7.50;;;22.70;6.00;;;;;;4987494;28;20573;-62
2023/07/05 12:41:25;;;;;;;8.17;7.63;;;22.60;6.80;;;;;;4987886;28;20434;-62
2023/07/05 12:44:00;;;;;;;8.20;7.80;;;22.60;6.80;;;;;;4987756;28;20428;-61
2023/07/05 12:46:28;;;;;;;7.27;6.60;;;22.60;7.10;;;;;;4987952;28;20441;-61
2023/07/05 12:48:54;;;;;;;8.47;7.87;;;22.60;6.50;;;;;;4987537;28;20845;-61
2023/07/05 12:51:28;;;;;;;7.40;7.10;;;22.60;6.50;;;;;;4988057;28;20505;-62
2023/07/05 12:53:59;;;;;;;7.70;7.10;;;22.70;6.00;;;;;;4987648;28;20843;-61
2023/07/05 12:56:36;;;;;;;7.83;7.43;;;22.70;6.00;;;;;;4987755;28;20520;-61
2023/07/05 12:59:13;;;;;;;8.70;8.20;;;22.70;6.00;;;;;;4987529;28;20505;-61
2023/07/05 13:01:41;;;;;;;8.50;8.10;;;22.70;5.60;;;;;;4999052;28;20429;-61
2023/07/05 13:04:13;;;;;;;8.10;7.70;;;22.60;5.90;;;;;;4989087;28;20414;-61